createdAt,value
2017-10-13T00:00:41.657Z,23.40
2017-10-13T00:03:09.501Z,23.40
2017-10-13T00:05:37.389Z,23.40
2017-10-13T00:08:05.207Z,23.40
2017-10-13T00:10:35.039Z,23.40
2017-10-13T00:13:03.926Z,23.30
2017-10-13T00:15:31.739Z,23.30
2017-10-13T00:17:59.814Z,23.40
2017-10-13T00:20:27.928Z,23.40
2017-10-13T00:22:55.953Z,23.30
2017-10-13T00:25:23.971Z,23.30
2017-10-13T00:27:51.830Z,23.30
2017-10-13T00:30:19.667Z,23.30
2017-10-13T00:32:47.531Z,23.30
2017-10-13T00:35:15.360Z,23.30
2017-10-13T00:37:43.260Z,23.30
2017-10-13T00:40:11.154Z,23.30
2017-10-13T00:42:39.852Z,23.20
2017-10-13T00:45:07.844Z,23.20
2017-10-13T00:47:35.680Z,23.20
2017-10-13T00:50:04.481Z,23.10
2017-10-13T00:52:33.171Z,23.10
2017-10-13T00:55:01.255Z,23.10
2017-10-13T00:57:29.276Z,23.10
2017-10-13T00:59:57.919Z,23.10
2017-10-13T01:02:25.844Z,23.10
2017-10-13T01:04:54.477Z,23.00
2017-10-13T01:07:22.355Z,23.00
2017-10-13T01:09:50.479Z,23.00
2017-10-13T01:12:18.411Z,23.00
2017-10-13T01:14:47.113Z,23.00
2017-10-13T01:17:15.741Z,23.00
2017-10-13T01:19:43.587Z,22.90
2017-10-13T01:22:11.575Z,22.90
2017-10-13T01:24:39.534Z,22.90
2017-10-13T01:27:07.543Z,22.90
2017-10-13T01:29:35.484Z,22.90
2017-10-13T01:32:03.444Z,22.90
2017-10-13T01:34:31.346Z,22.80
2017-10-13T01:36:59.291Z,22.80
2017-10-13T01:39:27.247Z,22.70
2017-10-13T01:41:55.168Z,22.70
2017-10-13T01:44:23.868Z,22.70
2017-10-13T01:46:53.592Z,22.70
2017-10-13T01:49:21.540Z,22.70
2017-10-13T01:51:50.219Z,22.70
2017-10-13T01:54:18.265Z,22.60
2017-10-13T01:56:46.233Z,22.60
2017-10-13T01:59:14.169Z,22.60
2017-10-13T02:01:42.060Z,22.70
2017-10-13T02:04:09.967Z,22.60
2017-10-13T02:06:38.559Z,22.60
2017-10-13T02:09:07.166Z,22.60
2017-10-13T02:11:35.043Z,22.60
2017-10-13T02:14:02.900Z,22.50
2017-10-13T02:16:30.748Z,22.50
2017-10-13T02:18:58.679Z,22.50
2017-10-13T02:21:26.712Z,22.50
2017-10-13T02:23:54.607Z,22.50
2017-10-13T02:26:22.647Z,22.50
2017-10-13T02:28:51.391Z,22.50
2017-10-13T02:31:20.022Z,22.50
2017-10-13T02:33:47.899Z,22.50
2017-10-13T02:36:15.820Z,22.50
2017-10-13T02:38:43.657Z,22.50
2017-10-13T02:41:11.695Z,22.50
2017-10-13T02:43:39.690Z,22.50
2017-10-13T02:46:07.784Z,22.50
2017-10-13T02:48:36.535Z,22.50
2017-10-13T02:51:04.481Z,22.40
2017-10-13T02:53:32.320Z,22.40
2017-10-13T02:56:00.957Z,22.40
2017-10-13T02:58:28.813Z,22.40
2017-10-13T03:00:56.779Z,22.40
2017-10-13T03:03:24.670Z,22.40
2017-10-13T03:05:52.503Z,22.40
2017-10-13T03:08:20.340Z,22.40
2017-10-13T03:10:48.196Z,22.40
2017-10-13T03:13:16.809Z,22.40
2017-10-13T03:15:44.616Z,22.30
2017-10-13T03:18:12.480Z,22.40
2017-10-13T03:20:40.354Z,22.40
2017-10-13T03:23:08.240Z,22.40
2017-10-13T03:25:37.003Z,22.40
2017-10-13T03:28:04.924Z,22.30
2017-10-13T03:30:33.613Z,22.30
2017-10-13T03:33:01.445Z,22.30
2017-10-13T03:35:30.131Z,22.40
2017-10-13T03:37:58.848Z,22.30
2017-10-13T03:40:26.725Z,22.30
2017-10-13T03:42:54.639Z,22.30
2017-10-13T03:45:22.529Z,22.30
2017-10-13T03:47:51.180Z,22.30
2017-10-13T03:50:19.034Z,22.30
2017-10-13T03:52:46.903Z,22.30
2017-10-13T03:55:14.834Z,22.30
2017-10-13T03:57:42.648Z,22.30
2017-10-13T04:00:10.577Z,22.30
2017-10-13T04:02:38.464Z,22.30
2017-10-13T04:05:06.547Z,22.30
2017-10-13T04:07:34.661Z,22.30
2017-10-13T04:10:02.584Z,22.30
2017-10-13T04:12:30.720Z,22.30
2017-10-13T04:14:58.588Z,22.30
2017-10-13T04:17:26.465Z,22.30
2017-10-13T04:19:54.284Z,22.20
2017-10-13T04:22:23.082Z,22.30
2017-10-13T04:24:50.969Z,22.30
2017-10-13T04:27:19.930Z,22.30
2017-10-13T04:29:48.509Z,22.20
2017-10-13T04:32:16.365Z,22.20
2017-10-13T04:34:44.254Z,22.20
2017-10-13T04:37:13.008Z,22.20
2017-10-13T04:39:40.975Z,22.20
2017-10-13T04:42:08.891Z,22.20
2017-10-13T04:44:36.746Z,22.20
2017-10-13T04:47:06.612Z,22.20
2017-10-13T04:49:34.428Z,22.20
2017-10-13T04:52:03.148Z,22.20
2017-10-13T04:54:30.965Z,22.20
2017-10-13T04:56:59.571Z,22.20
2017-10-13T04:59:27.500Z,22.20
2017-10-13T05:01:55.316Z,22.20
2017-10-13T05:04:23.172Z,22.20
2017-10-13T05:06:50.996Z,22.20
2017-10-13T05:09:18.833Z,22.20
2017-10-13T05:11:46.667Z,22.30
2017-10-13T05:14:14.511Z,22.30
2017-10-13T05:16:43.197Z,22.20
2017-10-13T05:19:11.787Z,22.20
2017-10-13T05:21:40.398Z,22.20
2017-10-13T05:24:08.238Z,22.20
2017-10-13T05:26:36.843Z,22.30
2017-10-13T05:29:04.959Z,22.20
2017-10-13T05:31:32.812Z,22.20
2017-10-13T05:34:01.083Z,22.30
2017-10-13T05:36:28.950Z,22.30
2017-10-13T05:38:57.008Z,22.30
2017-10-13T05:41:24.848Z,22.30
2017-10-13T05:43:53.633Z,22.30
2017-10-13T05:46:21.526Z,22.30
2017-10-13T05:48:49.396Z,22.30
2017-10-13T05:51:17.233Z,22.30
2017-10-13T05:53:46.149Z,22.30
2017-10-13T05:56:14.008Z,22.30
2017-10-13T05:58:41.937Z,22.40
2017-10-13T06:01:10.548Z,22.40
2017-10-13T06:03:38.532Z,22.30
2017-10-13T06:06:06.487Z,22.40
2017-10-13T06:08:34.560Z,22.30
2017-10-13T06:11:02.414Z,22.30
2017-10-13T06:13:30.399Z,22.30
2017-10-13T06:15:58.397Z,22.30
2017-10-13T06:18:26.333Z,22.30
2017-10-13T06:20:54.192Z,22.30
2017-10-13T06:23:22.654Z,22.30
2017-10-13T06:25:51.424Z,22.20
2017-10-13T06:28:19.309Z,22.20
2017-10-13T06:30:48.063Z,22.20
2017-10-13T06:33:16.184Z,22.20
2017-10-13T06:35:44.152Z,22.20
2017-10-13T06:38:12.210Z,22.20
2017-10-13T06:40:40.530Z,22.10
2017-10-13T06:43:08.528Z,22.20
2017-10-13T06:45:36.591Z,22.10
2017-10-13T06:48:04.510Z,22.10
2017-10-13T06:50:32.492Z,22.10
2017-10-13T06:53:00.425Z,22.10
2017-10-13T06:55:28.361Z,22.10
2017-10-13T06:57:56.246Z,22.10
2017-10-13T07:00:24.078Z,22.20
2017-10-13T07:02:51.981Z,22.10
2017-10-13T07:05:19.880Z,22.10
2017-10-13T07:07:48.471Z,22.20
2017-10-13T07:10:16.411Z,22.20
2017-10-13T07:12:44.453Z,22.20
2017-10-13T07:15:12.339Z,22.20
2017-10-13T07:17:40.253Z,22.20
2017-10-13T07:20:08.228Z,22.30
2017-10-13T07:22:36.228Z,22.30
2017-10-13T07:25:04.218Z,22.30
2017-10-13T07:27:32.191Z,22.30
2017-10-13T07:30:00.933Z,22.40
2017-10-13T07:32:28.755Z,22.40
2017-10-13T07:34:57.394Z,22.50
2017-10-13T07:37:25.587Z,22.60
2017-10-13T07:39:53.447Z,22.60
2017-10-13T07:42:21.308Z,22.70
2017-10-13T07:44:49.634Z,22.80
2017-10-13T07:47:17.564Z,22.90
2017-10-13T07:49:45.472Z,23.00
2017-10-13T07:52:13.333Z,23.10
2017-10-13T07:54:41.943Z,23.30
2017-10-13T07:57:09.784Z,23.30
2017-10-13T07:59:38.457Z,23.50
2017-10-13T08:02:07.053Z,23.60
2017-10-13T08:04:35.048Z,23.60
2017-10-13T08:07:02.859Z,23.70
2017-10-13T08:09:33.425Z,23.70
2017-10-13T08:12:01.562Z,23.80
2017-10-13T08:14:29.586Z,23.80
2017-10-13T08:16:57.396Z,23.80
2017-10-13T08:19:25.296Z,23.80
2017-10-13T08:21:53.471Z,23.90
2017-10-13T08:24:21.467Z,24.00
2017-10-13T08:26:49.402Z,24.00
2017-10-13T08:29:17.432Z,24.00
2017-10-13T08:31:45.385Z,24.00
2017-10-13T08:34:13.283Z,24.00
2017-10-13T08:36:42.008Z,24.10
2017-10-13T08:39:09.875Z,24.10
2017-10-13T08:41:37.744Z,24.20
2017-10-13T08:44:05.588Z,24.30
2017-10-13T08:46:33.519Z,24.40
2017-10-13T08:49:01.447Z,24.50
2017-10-13T08:51:29.288Z,24.60
2017-10-13T08:53:57.923Z,24.70
2017-10-13T08:56:25.819Z,24.70
2017-10-13T08:58:53.771Z,24.80
2017-10-13T09:01:21.695Z,24.90
2017-10-13T09:03:49.656Z,24.90
2017-10-13T09:06:17.664Z,25.00
2017-10-13T09:08:45.572Z,25.20
2017-10-13T09:11:14.303Z,25.30
2017-10-13T09:13:42.204Z,25.30
2017-10-13T09:16:10.419Z,25.40
2017-10-13T09:18:38.310Z,25.50
2017-10-13T09:21:06.286Z,25.60
2017-10-13T09:23:34.300Z,25.70
2017-10-13T09:26:03.026Z,25.80
2017-10-13T09:28:30.904Z,25.80
2017-10-13T09:30:58.902Z,25.90
2017-10-13T09:33:27.696Z,25.90
2017-10-13T09:35:56.458Z,25.90
2017-10-13T09:38:24.384Z,25.90
2017-10-13T09:40:52.305Z,25.90
2017-10-13T09:43:20.158Z,25.90
2017-10-13T09:45:48.116Z,26.00
2017-10-13T09:48:16.115Z,25.90
2017-10-13T09:50:44.187Z,25.90
2017-10-13T09:53:13.628Z,26.00
2017-10-13T09:55:41.947Z,26.10
2017-10-13T09:58:09.806Z,26.30
2017-10-13T10:00:38.390Z,26.30
2017-10-13T10:03:06.536Z,26.40
2017-10-13T10:05:34.530Z,26.50
2017-10-13T10:08:02.766Z,26.60
2017-10-13T10:10:30.889Z,26.70
2017-10-13T10:12:59.233Z,26.70
2017-10-13T10:15:27.316Z,26.80
2017-10-13T10:17:55.157Z,26.90
2017-10-13T10:20:23.035Z,26.90
2017-10-13T10:22:51.258Z,27.00
2017-10-13T10:25:19.227Z,27.00
2017-10-13T10:27:47.135Z,27.00
2017-10-13T10:30:15.040Z,27.10
2017-10-13T10:32:43.142Z,27.10
2017-10-13T10:35:11.131Z,27.10
2017-10-13T10:37:39.856Z,27.20
2017-10-13T10:40:08.059Z,27.20
2017-10-13T10:42:35.998Z,27.20
2017-10-13T10:45:03.847Z,27.20
2017-10-13T10:47:31.780Z,27.30
2017-10-13T10:49:59.725Z,27.30
2017-10-13T10:52:27.582Z,27.30
2017-10-13T10:54:55.951Z,27.30
2017-10-13T10:57:23.912Z,27.20
2017-10-13T10:59:51.902Z,27.30
2017-10-13T11:02:19.764Z,27.20
2017-10-13T11:04:47.783Z,27.20
2017-10-13T11:07:16.654Z,27.20
2017-10-13T11:09:44.568Z,27.20
2017-10-13T11:12:12.790Z,27.20
2017-10-13T11:14:40.740Z,27.30
2017-10-13T11:17:08.593Z,27.20
2017-10-13T11:19:36.455Z,27.30
2017-10-13T11:22:04.374Z,27.20
2017-10-13T11:24:32.342Z,27.10
2017-10-13T11:27:02.950Z,27.20
2017-10-13T11:29:31.106Z,27.10
2017-10-13T11:31:59.586Z,27.00
2017-10-13T11:34:27.841Z,27.10
2017-10-13T11:36:55.773Z,27.10
2017-10-13T11:39:24.591Z,27.10
2017-10-13T11:41:52.514Z,27.10
2017-10-13T11:44:21.385Z,27.20
2017-10-13T11:46:49.507Z,27.20
2017-10-13T11:49:17.473Z,27.20
2017-10-13T11:51:46.109Z,27.20
2017-10-13T11:54:13.964Z,27.20
2017-10-13T11:56:41.854Z,27.30
2017-10-13T11:59:09.844Z,27.20
2017-10-13T12:01:37.817Z,27.20
2017-10-13T12:04:06.512Z,27.20
2017-10-13T12:06:35.180Z,27.20
2017-10-13T12:09:03.046Z,27.20
2017-10-13T12:11:30.900Z,27.10
2017-10-13T12:13:59.021Z,27.10
2017-10-13T12:16:27.750Z,27.10
2017-10-13T12:18:55.584Z,27.10
2017-10-13T12:21:23.439Z,27.10
2017-10-13T12:23:51.266Z,27.00
2017-10-13T12:26:19.075Z,27.00
2017-10-13T12:28:47.004Z,27.00
2017-10-13T12:31:14.933Z,27.00
2017-10-13T12:33:42.875Z,27.00
2017-10-13T12:36:11.507Z,27.00
2017-10-13T12:38:39.440Z,26.90
2017-10-13T12:41:07.821Z,26.90
2017-10-13T12:43:36.487Z,26.80
2017-10-13T12:46:04.300Z,26.80
2017-10-13T12:48:32.130Z,26.80
2017-10-13T12:50:59.935Z,26.80
2017-10-13T12:53:27.793Z,26.90
2017-10-13T12:55:55.747Z,26.80
2017-10-13T12:58:23.658Z,26.90
2017-10-13T13:00:52.273Z,26.90
2017-10-13T13:03:21.123Z,26.80
2017-10-13T13:05:49.765Z,26.80
2017-10-13T13:08:17.644Z,26.70
2017-10-13T13:10:45.578Z,26.70
2017-10-13T13:13:13.603Z,26.70
2017-10-13T13:15:41.495Z,26.70
2017-10-13T13:18:10.266Z,26.70
2017-10-13T13:20:39.028Z,26.70
2017-10-13T13:23:07.132Z,26.70
2017-10-13T13:25:35.745Z,26.70
2017-10-13T13:28:03.638Z,26.70
2017-10-13T13:30:31.564Z,26.70
2017-10-13T13:33:00.169Z,26.70
2017-10-13T13:35:28.011Z,26.80
2017-10-13T13:37:57.495Z,26.80
2017-10-13T13:40:25.315Z,26.70
2017-10-13T13:42:53.156Z,26.70
2017-10-13T13:45:21.041Z,26.70
2017-10-13T13:47:49.759Z,26.80
2017-10-13T13:50:17.661Z,26.80
2017-10-13T13:52:46.285Z,26.80
2017-10-13T13:55:14.148Z,26.80
2017-10-13T13:57:42.331Z,26.80
2017-10-13T14:00:10.197Z,26.90
2017-10-13T14:02:38.046Z,26.90
2017-10-13T14:05:05.958Z,27.00
2017-10-13T14:07:33.902Z,26.90
2017-10-13T14:10:01.827Z,26.90
2017-10-13T14:12:30.546Z,26.80
2017-10-13T14:15:07.358Z,26.70
2017-10-13T14:17:35.773Z,26.70
2017-10-13T14:20:04.575Z,26.70
2017-10-13T14:22:32.498Z,26.60
2017-10-13T14:25:00.619Z,26.60
2017-10-13T14:27:28.536Z,26.60
2017-10-13T14:29:56.428Z,26.60
2017-10-13T14:32:25.266Z,26.50
2017-10-13T14:34:54.216Z,26.50
2017-10-13T14:37:22.658Z,26.50
2017-10-13T14:39:50.590Z,26.50
2017-10-13T14:42:18.399Z,26.50
2017-10-13T14:44:46.314Z,26.50
2017-10-13T14:47:14.195Z,26.50
2017-10-13T14:49:42.185Z,26.50
2017-10-13T14:52:10.036Z,26.50
2017-10-13T14:54:38.119Z,26.50
2017-10-13T14:57:05.938Z,26.60
2017-10-13T14:59:34.639Z,26.60
2017-10-13T15:02:03.082Z,26.60
2017-10-13T15:04:30.904Z,26.50
2017-10-13T15:06:58.690Z,26.50
2017-10-13T15:09:26.636Z,26.50
2017-10-13T15:11:54.519Z,26.50
2017-10-13T15:14:22.465Z,26.50
2017-10-13T15:16:50.354Z,26.50
2017-10-13T15:19:18.163Z,26.50
2017-10-13T15:21:46.779Z,26.50
2017-10-13T15:24:14.644Z,26.40
2017-10-13T15:26:42.427Z,26.40
2017-10-13T15:29:15.979Z,26.50
2017-10-13T15:31:50.270Z,26.40
2017-10-13T15:34:36.800Z,26.30
2017-10-13T15:37:05.556Z,26.30
2017-10-13T15:39:38.896Z,26.30
2017-10-13T15:42:12.267Z,26.30
2017-10-13T15:44:40.932Z,26.30
2017-10-13T15:47:14.377Z,26.20
2017-10-13T15:49:47.964Z,26.20
2017-10-13T15:52:21.355Z,26.10
2017-10-13T15:54:49.970Z,26.20
2017-10-13T15:57:17.769Z,26.20
2017-10-13T15:59:45.606Z,26.20
2017-10-13T16:02:13.383Z,26.10
2017-10-13T16:04:42.804Z,26.10
2017-10-13T16:07:10.625Z,26.10
2017-10-13T16:09:38.496Z,26.00
2017-10-13T16:12:07.159Z,26.00
2017-10-13T16:14:35.736Z,26.00
2017-10-13T16:17:04.331Z,26.00
2017-10-13T16:19:32.915Z,26.00
2017-10-13T16:22:01.492Z,26.10
2017-10-13T16:24:30.122Z,26.10
2017-10-13T16:26:58.085Z,26.00
2017-10-13T16:29:25.906Z,26.10
2017-10-13T16:31:54.468Z,26.10
2017-10-13T16:34:22.263Z,26.10
2017-10-13T16:36:50.908Z,26.10
2017-10-13T16:39:18.776Z,26.10
2017-10-13T16:41:46.588Z,26.20
2017-10-13T16:44:14.447Z,26.20
2017-10-13T16:46:42.281Z,26.10
2017-10-13T16:49:10.067Z,26.20
2017-10-13T16:51:38.751Z,26.20
2017-10-13T16:54:07.352Z,26.20
2017-10-13T16:56:35.475Z,26.10
2017-10-13T16:59:03.265Z,26.20
2017-10-13T17:01:32.318Z,26.20
2017-10-13T17:04:00.234Z,26.20
2017-10-13T17:06:28.877Z,26.20
2017-10-13T17:08:56.692Z,26.20
2017-10-13T17:11:25.532Z,26.20
2017-10-13T17:13:53.434Z,26.20
2017-10-13T17:16:22.030Z,26.20
2017-10-13T17:18:50.723Z,26.20
2017-10-13T17:21:18.553Z,26.10
2017-10-13T17:23:46.346Z,26.10
2017-10-13T17:26:15.105Z,26.10
2017-10-13T17:28:42.933Z,26.10
2017-10-13T17:31:10.972Z,26.10
2017-10-13T17:33:38.757Z,26.10
2017-10-13T17:36:06.658Z,26.10
2017-10-13T17:38:34.520Z,26.10
2017-10-13T17:41:02.397Z,26.00
2017-10-13T17:43:30.224Z,26.10
2017-10-13T17:45:58.017Z,26.00
2017-10-13T17:48:25.821Z,26.00
2017-10-13T17:50:54.413Z,26.00
2017-10-13T17:53:23.013Z,26.00
2017-10-13T17:55:50.915Z,26.00
2017-10-13T17:58:18.703Z,26.00
2017-10-13T18:00:46.501Z,26.00
2017-10-13T18:03:14.369Z,26.00
2017-10-13T18:05:42.292Z,25.90
2017-10-13T18:08:10.229Z,25.90
2017-10-13T18:10:38.068Z,25.90
2017-10-13T18:13:06.111Z,25.90
2017-10-13T18:15:34.684Z,25.90
2017-10-13T18:18:02.555Z,25.90
2017-10-13T18:20:30.399Z,25.90
2017-10-13T18:23:00.681Z,25.90
2017-10-13T18:25:29.757Z,25.90
2017-10-13T18:27:57.587Z,25.80
2017-10-13T18:30:25.368Z,25.80
2017-10-13T18:32:53.188Z,25.80
2017-10-13T18:35:20.972Z,25.80
2017-10-13T18:37:49.569Z,25.80
2017-10-13T18:40:17.363Z,25.80
2017-10-13T18:42:45.928Z,25.70
2017-10-13T18:45:13.720Z,25.70
2017-10-13T18:47:42.511Z,25.70
2017-10-13T18:50:10.306Z,25.70
2017-10-13T18:52:38.959Z,25.70
2017-10-13T18:55:06.801Z,25.70
2017-10-13T18:57:34.720Z,25.70
2017-10-13T19:00:02.586Z,25.70
2017-10-13T19:02:30.661Z,25.70
2017-10-13T19:04:58.444Z,25.60
2017-10-13T19:07:26.513Z,25.60
2017-10-13T19:09:54.339Z,25.60
2017-10-13T19:12:22.337Z,25.60
2017-10-13T19:14:50.888Z,25.60
2017-10-13T19:17:18.852Z,25.60
2017-10-13T19:19:47.278Z,25.60
2017-10-13T19:22:15.076Z,25.60
2017-10-13T19:24:43.683Z,25.50
2017-10-13T19:27:11.539Z,25.60
2017-10-13T19:29:41.905Z,25.60
2017-10-13T19:32:09.962Z,25.50
2017-10-13T19:34:42.669Z,25.50
2017-10-13T19:37:10.500Z,25.40
2017-10-13T19:39:38.597Z,25.50
2017-10-13T19:42:08.100Z,25.50
2017-10-13T19:44:36.401Z,25.40
2017-10-13T19:47:06.413Z,25.40
2017-10-13T19:49:38.668Z,25.40
2017-10-13T19:52:06.908Z,25.30
2017-10-13T19:54:35.177Z,25.30
2017-10-13T19:57:03.848Z,25.30
2017-10-13T19:59:32.520Z,25.30
2017-10-13T20:02:01.188Z,25.40
2017-10-13T20:04:29.870Z,25.30
2017-10-13T20:06:57.742Z,25.40
2017-10-13T20:09:25.902Z,25.30
2017-10-13T20:11:53.740Z,25.40
2017-10-13T20:14:21.644Z,25.30
2017-10-13T20:16:49.577Z,25.30
2017-10-13T20:19:17.596Z,25.40
2017-10-13T20:21:45.592Z,25.30
2017-10-13T20:24:13.521Z,25.30
2017-10-13T20:26:56.183Z,25.30
2017-10-13T20:29:24.160Z,25.30
2017-10-13T20:32:01.092Z,25.30
2017-10-13T20:34:29.177Z,25.30
2017-10-13T20:36:57.281Z,25.30
2017-10-13T20:39:25.286Z,25.30
2017-10-13T20:41:54.691Z,25.30
2017-10-13T20:44:22.491Z,25.30
2017-10-13T20:46:51.245Z,25.30
2017-10-13T20:49:19.141Z,25.30
2017-10-13T20:51:47.828Z,25.20
2017-10-13T20:54:20.474Z,25.20
2017-10-13T20:56:48.834Z,25.20
2017-10-13T20:59:17.815Z,25.20
2017-10-13T21:04:20.535Z,25.10
2017-10-13T21:06:48.518Z,25.10
2017-10-13T21:09:16.530Z,25.10
2017-10-13T21:11:45.167Z,25.10
2017-10-13T21:14:13.299Z,25.10
2017-10-13T21:16:41.200Z,25.10
2017-10-13T21:19:09.233Z,25.10
2017-10-13T21:21:37.136Z,25.10
2017-10-13T21:24:04.985Z,25.00
2017-10-13T21:26:34.063Z,25.00
2017-10-13T21:29:01.946Z,25.00
2017-10-13T21:31:29.838Z,25.00
2017-10-13T21:33:57.677Z,25.00
2017-10-13T21:36:25.549Z,24.90
2017-10-13T21:38:54.418Z,25.00
2017-10-13T21:41:22.282Z,24.90
2017-10-13T21:43:50.820Z,24.90
2017-10-13T21:46:18.689Z,24.90
2017-10-13T21:48:47.544Z,24.80
2017-10-13T21:51:15.539Z,24.80
2017-10-13T21:53:47.469Z,24.80
2017-10-13T21:56:15.531Z,24.80
2017-10-13T21:58:43.507Z,24.80
2017-10-13T22:01:11.372Z,24.80
2017-10-13T22:03:39.303Z,24.70
2017-10-13T22:06:07.936Z,24.70
2017-10-13T22:08:35.787Z,24.70
2017-10-13T22:11:03.624Z,24.60
2017-10-13T22:13:32.242Z,24.60
2017-10-13T22:16:00.116Z,24.60
2017-10-13T22:18:27.987Z,24.60
2017-10-13T22:20:55.851Z,24.60
2017-10-13T22:23:23.701Z,24.60
2017-10-13T22:25:51.650Z,24.60
2017-10-13T22:28:20.276Z,24.50
2017-10-13T22:30:48.136Z,24.50
2017-10-13T22:33:16.038Z,24.50
2017-10-13T22:35:43.917Z,24.50
2017-10-13T22:38:12.516Z,24.50
2017-10-13T22:40:41.128Z,24.50
2017-10-13T22:43:08.983Z,24.50
2017-10-13T22:45:36.850Z,24.50
2017-10-13T22:48:04.707Z,24.50
2017-10-13T22:50:32.569Z,24.40
2017-10-13T22:53:00.458Z,24.40
2017-10-13T22:55:28.412Z,24.40
2017-10-13T22:57:56.341Z,24.40
2017-10-13T23:00:24.266Z,24.40
2017-10-13T23:02:52.211Z,24.40
2017-10-13T23:05:20.073Z,24.30
2017-10-13T23:07:48.699Z,24.30
2017-10-13T23:10:16.542Z,24.30
2017-10-13T23:12:44.582Z,24.30
2017-10-13T23:15:13.252Z,24.30
2017-10-13T23:17:41.107Z,24.30
2017-10-13T23:20:08.963Z,24.30
2017-10-13T23:22:36.836Z,24.30
2017-10-13T23:25:04.691Z,24.30
2017-10-13T23:27:32.528Z,24.30
2017-10-13T23:30:00.742Z,24.30
2017-10-13T23:32:28.604Z,24.30
2017-10-13T23:34:56.711Z,24.30
2017-10-13T23:37:24.651Z,24.30
2017-10-13T23:39:53.166Z,24.20
2017-10-13T23:42:21.216Z,24.20
2017-10-13T23:44:53.071Z,24.20
2017-10-13T23:47:20.931Z,24.20
2017-10-13T23:49:48.767Z,24.20
2017-10-13T23:52:16.635Z,24.20
2017-10-13T23:54:44.731Z,24.20
2017-10-13T23:57:12.554Z,24.20
2017-10-13T23:59:40.816Z,24.30
